Time;durP1;ratioP1;P1;durP2;ratioP2;P2;SDS_P1;SDS_P2;PMS_P1;PMS_P2;Temp;Humidity;BMP_temperature;BMP_pressure;BME280_temperature;BME280_humidity;BME280_pressure;Samples;Min_cycle;Max_cycle;Signal;HPM_P1;HPM_P2
2023/04/20 00:00:10;;;;;;;5.20;2.10;;;;;;;7.03;38.25;102132.22;5111292;27;20046;-71
2023/04/20 00:02:40;;;;;;;5.18;2.65;;;;;;;6.96;38.65;102118.19;5109798;27;20040;-70
2023/04/20 00:05:10;;;;;;;4.47;2.10;;;;;;;6.86;39.02;102121.63;5124729;27;20729;-70
2023/04/20 00:07:40;;;;;;;6.38;2.10;;;;;;;6.75;39.40;102118.06;5124359;27;20161;-71
2023/04/20 00:10:08;;;;;;;3.30;2.00;;;;;;;6.66;39.81;102119.75;5113149;27;20080;-71
2023/04/20 00:12:35;;;;;;;4.97;2.17;;;;;;;6.56;40.06;102112.72;5122407;27;20032;-71
2023/04/20 00:15:03;;;;;;;5.18;2.10;;;;;;;6.50;40.54;102096.97;5119871;27;20040;-70
2023/04/20 00:17:30;;;;;;;6.05;2.47;;;;;;;6.42;40.80;102098.63;5114158;27;20044;-70
2023/04/20 00:19:58;;;;;;;4.93;2.28;;;;;;;6.33;41.02;102091.59;5127362;27;20140;-71
2023/04/20 00:22:27;;;;;;;7.35;2.00;;;;;;;6.28;41.36;102085.44;5106191;27;20035;-71
2023/04/20 00:24:54;;;;;;;11.93;2.58;;;;;;;6.18;41.72;102079.25;5123753;27;20047;-71
2023/04/20 00:27:21;;;;;;;7.90;2.58;;;;;;;6.09;41.96;102074.81;5125956;27;20864;-72
2023/04/20 00:29:48;;;;;;;4.47;2.20;;;;;;;6.05;42.35;102078.28;5122881;27;20039;-72
2023/04/20 00:32:15;;;;;;;4.95;2.33;;;;;;;6.01;42.60;102076.50;5124668;27;20047;-71
2023/04/20 00:34:42;;;;;;;3.97;2.40;;;;;;;5.95;42.62;102066.81;5125698;27;20068;-71
2023/04/20 00:37:10;;;;;;;5.55;2.42;;;;;;;5.88;42.70;102063.25;5127237;27;20549;-71
2023/04/20 00:39:37;;;;;;;3.63;2.00;;;;;;;5.86;42.92;102064.13;5127162;27;20047;-71
2023/04/20 00:42:07;;;;;;;5.50;2.40;;;;;;;5.82;43.20;102062.31;5117778;27;20127;-71
2023/04/20 00:44:34;;;;;;;4.80;2.35;;;;;;;5.78;43.41;102056.19;5119569;27;20452;-71
2023/04/20 00:47:01;;;;;;;4.50;2.05;;;;;;;5.73;43.52;102052.66;5124343;27;20059;-70
2023/04/20 00:49:30;;;;;;;4.05;2.35;;;;;;;5.68;43.98;102047.41;5115066;27;20036;-70
2023/04/20 00:51:58;;;;;;;8.43;2.50;;;;;;;5.61;44.33;102040.31;5103351;27;20423;-70
2023/04/20 00:54:28;;;;;;;4.13;2.00;;;;;;;5.54;44.40;102047.28;5119329;27;20042;-71
2023/04/20 00:56:58;;;;;;;6.50;2.45;;;;;;;5.49;44.79;102030.63;5110631;27;20035;-71
2023/04/20 00:59:25;;;;;;;3.65;2.45;;;;;;;5.43;45.04;102017.50;5125756;27;20046;-70
2023/04/20 01:01:53;;;;;;;5.50;2.40;;;;;;;5.40;45.20;102007.88;5124754;27;20069;-70
2023/04/20 01:04:20;;;;;;;4.18;2.40;;;;;;;5.38;45.65;102014.84;5126455;27;20591;-70
2023/04/20 01:06:48;;;;;;;4.47;2.35;;;;;;;5.37;45.71;102013.09;5122506;27;20036;-70
2023/04/20 01:09:15;;;;;;;7.82;2.58;;;;;;;5.32;45.95;102006.91;5115188;27;20123;-70
2023/04/20 01:11:43;;;;;;;3.97;2.35;;;;;;;5.29;46.11;102009.53;5124564;27;20048;-70
2023/04/20 01:14:15;;;;;;;5.85;2.55;;;;;;;5.21;46.00;102000.69;5112514;27;20092;-71
2023/04/20 01:16:43;;;;;;;5.50;2.40;;;;;;;5.15;45.96;102006.75;5108949;27;20067;-71
2023/04/20 01:19:12;;;;;;;3.95;2.53;;;;;;;5.08;46.25;101999.69;5109084;27;20965;-70
2023/04/20 01:21:39;;;;;;;6.97;2.40;;;;;;;5.04;46.40;101988.34;5110537;27;20043;-71
2023/04/20 01:24:07;;;;;;;5.43;2.60;;;;;;;5.00;46.18;101986.53;5109202;27;20040;-69
2023/04/20 01:26:34;;;;;;;6.55;2.50;;;;;;;4.94;46.52;101982.13;5120177;27;20040;-71
2023/04/20 01:29:01;;;;;;;3.83;2.50;;;;;;;4.90;46.66;101971.59;5120262;27;20523;-71
2023/04/20 01:31:28;;;;;;;6.13;2.55;;;;;;;4.92;47.34;101969.91;5112502;27;20033;-71
2023/04/20 01:33:57;;;;;;;3.83;2.60;;;;;;;4.92;47.76;101964.66;5122864;27;20470;-71
2023/04/20 01:36:24;;;;;;;3.35;2.15;;;;;;;4.93;47.96;101964.72;5118814;27;20739;-71
2023/04/20 01:38:51;;;;;;;4.35;2.30;;;;;;;4.92;47.85;101959.44;5116540;27;20089;-70
2023/04/20 01:41:20;;;;;;;5.45;2.78;;;;;;;4.86;47.92;101951.53;5125130;27;20039;-71
2023/04/20 01:43:47;;;;;;;4.07;2.28;;;;;;;4.82;48.13;101948.88;5100290;27;20093;-71
2023/04/20 01:46:15;;;;;;;4.93;2.50;;;;;;;4.79;48.29;101945.38;5123012;27;20250;-71
2023/04/20 01:48:42;;;;;;;6.03;1.92;;;;;;;4.81;48.83;101943.66;5124954;27;20040;-71
2023/04/20 01:51:09;;;;;;;5.07;2.72;;;;;;;4.84;48.83;101945.41;5123120;27;22431;-71
2023/04/20 01:53:36;;;;;;;3.60;2.17;;;;;;;4.86;49.15;101944.56;5103632;27;20404;-71
2023/04/20 01:56:03;;;;;;;5.35;2.83;;;;;;;4.90;49.14;101935.03;5127133;27;20787;-70
2023/04/20 01:58:30;;;;;;;5.75;2.60;;;;;;;4.93;49.46;101930.72;5123516;27;20052;-70
2023/04/20 02:01:00;;;;;;;5.38;2.42;;;;;;;4.96;49.47;101930.75;5141288;27;20075;-71
2023/04/20 02:03:27;;;;;;;5.53;2.40;;;;;;;5.02;49.66;101932.53;5128062;27;20036;-71
2023/04/20 02:05:55;;;;;;;4.95;2.58;;;;;;;5.01;49.84;101936.00;5124532;27;20527;-71
2023/04/20 02:08:26;;;;;;;7.00;2.28;;;;;;;5.02;50.06;101944.75;5122534;27;20083;-71
2023/04/20 02:10:53;;;;;;;3.83;2.50;;;;;;;5.01;50.55;101941.25;5122114;27;20741;-71
2023/04/20 02:13:20;;;;;;;5.70;2.65;;;;;;;5.00;50.53;101931.66;5111852;27;20593;-71
2023/04/20 02:15:47;;;;;;;6.40;2.60;;;;;;;4.99;50.85;101929.88;5126312;27;20039;-71
2023/04/20 02:18:15;;;;;;;4.32;2.55;;;;;;;5.04;51.83;101930.84;5125332;27;20499;-71
2023/04/20 02:20:44;;;;;;;3.88;2.53;;;;;;;5.11;52.40;101932.63;5110175;27;20568;-70
2023/04/20 02:23:11;;;;;;;5.20;2.72;;;;;;;5.16;52.58;101924.84;5119950;27;20534;-70
2023/04/20 02:25:38;;;;;;;6.38;2.88;;;;;;;5.18;52.96;101927.50;5106862;27;20093;-71
2023/04/20 02:28:05;;;;;;;4.28;2.72;;;;;;;5.26;53.24;101913.59;5120203;27;20556;-71
2023/04/20 02:30:32;;;;;;;4.80;2.58;;;;;;;5.26;53.31;101908.38;5112696;27;20044;-71
2023/04/20 02:33:00;;;;;;;3.00;2.25;;;;;;;5.33;53.56;101913.69;5113927;27;20050;-71
2023/04/20 02:35:27;;;;;;;4.20;2.97;;;;;;;5.36;53.78;101916.28;5128504;27;20047;-71
2023/04/20 02:37:54;;;;;;;5.22;2.83;;;;;;;5.40;53.70;101908.47;5125657;27;20039;-71
2023/04/20 02:40:21;;;;;;;4.63;2.55;;;;;;;5.47;54.10;101908.56;5105594;27;20059;-71
2023/04/20 02:42:49;;;;;;;4.80;2.70;;;;;;;5.53;53.96;101903.34;5122471;27;20554;-71
2023/04/20 02:45:16;;;;;;;6.07;2.60;;;;;;;5.60;54.11;101902.53;5104262;27;20847;-71
2023/04/20 02:47:45;;;;;;;3.85;2.70;;;;;;;5.70;54.18;101893.88;5115868;27;20570;-70
2023/04/20 02:50:14;;;;;;;5.93;2.90;;;;;;;5.73;54.17;101890.44;5109328;27;20486;-70
2023/04/20 02:53:01;;;;;;;5.55;2.80;;;;;;;5.74;54.34;101884.34;5111292;27;20056;-70
2023/04/20 02:55:31;;;;;;;4.78;2.80;;;;;;;5.75;54.58;101878.22;5104588;27;20254;-70
2023/04/20 02:58:03;;;;;;;4.63;2.55;;;;;;;5.82;54.88;101877.41;5109317;27;20039;-71
2023/04/20 03:00:50;;;;;;;15.55;3.20;;;;;;;5.88;54.94;101874.81;5119554;27;20575;-70
2023/04/20 03:03:19;;;;;;;4.82;2.80;;;;;;;5.94;55.09;101871.34;5117242;27;20039;-70
2023/04/20 03:05:48;;;;;;;5.60;2.90;;;;;;;5.94;55.47;101860.88;5120101;27;20527;-70
2023/04/20 03:08:15;;;;;;;4.10;2.78;;;;;;;6.01;55.42;101867.06;5107394;27;20121;-70
2023/04/20 03:10:45;;;;;;;3.65;2.80;;;;;;;6.06;55.55;101860.09;5123323;27;20044;-70
2023/04/20 03:13:18;;;;;;;4.00;2.90;;;;;;;6.07;55.71;101864.47;5107084;27;20047;-70
2023/04/20 03:15:59;;;;;;;4.25;2.78;;;;;;;6.14;56.12;101855.78;5106324;27;20566;-70
2023/04/20 03:18:34;;;;;;;6.57;2.90;;;;;;;6.26;55.81;101852.34;5137030;27;20044;-71
2023/04/20 03:21:01;;;;;;;5.45;2.83;;;;;;;6.29;55.68;101856.72;5106044;27;20047;-70
2023/04/20 03:23:30;;;;;;;8.75;2.97;;;;;;;6.36;55.61;101848.00;5120429;27;20581;-70
2023/04/20 03:26:00;;;;;;;5.40;2.88;;;;;;;6.42;55.64;101842.78;5106496;27;20587;-70
2023/04/20 03:28:53;;;;;;;3.97;2.70;;;;;;;6.47;55.65;101840.19;5112187;27;20527;-70
2023/04/20 03:31:25;;;;;;;5.22;3.08;;;;;;;6.55;55.96;101845.47;5101071;27;20508;-69
2023/04/20 03:33:54;;;;;;;4.00;2.65;;;;;;;6.56;55.58;101841.97;5124002;27;20105;-71
2023/04/20 03:36:22;;;;;;;3.67;2.58;;;;;;;6.61;55.65;101833.25;5124589;27;20961;-71
2023/04/20 03:38:49;;;;;;;5.10;3.20;;;;;;;6.60;55.75;101836.75;5106726;27;22131;-71
2023/04/20 03:41:16;;;;;;;4.78;2.90;;;;;;;6.64;55.97;101838.47;5119016;27;20040;-71
2023/04/20 03:43:43;;;;;;;4.75;2.88;;;;;;;6.71;56.01;101839.38;5123973;27;20032;-71
2023/04/20 03:46:10;;;;;;;5.47;2.75;;;;;;;6.75;56.01;101837.63;5132139;27;20043;-70
2023/04/20 03:48:37;;;;;;;8.88;3.50;;;;;;;6.76;56.16;101829.78;5147025;27;20036;-70
2023/04/20 03:51:04;;;;;;;6.07;2.80;;;;;;;6.77;56.28;101833.25;5131186;27;20118;-70
2023/04/20 03:53:32;;;;;;;5.43;3.00;;;;;;;6.78;56.54;101835.88;5125318;27;20036;-71
2023/04/20 03:55:59;;;;;;;6.90;3.17;;;;;;;6.89;56.43;101832.38;5117456;27;20507;-71
2023/04/20 03:58:27;;;;;;;7.47;3.00;;;;;;;6.87;56.55;101835.03;5121943;27;20039;-71
2023/04/20 04:01:06;;;;;;;6.20;3.17;;;;;;;6.88;56.68;101814.91;5117721;27;20631;-71
2023/04/20 04:03:36;;;;;;;3.67;3.00;;;;;;;6.87;56.71;101806.19;5127867;27;20096;-71
2023/04/20 04:06:03;;;;;;;5.65;3.38;;;;;;;6.93;56.74;101800.94;5136293;27;20066;-70
2023/04/20 04:08:32;;;;;;;5.55;3.08;;;;;;;6.93;56.91;101808.81;5124678;27;20071;-71
2023/04/20 04:10:59;;;;;;;5.13;3.05;;;;;;;6.92;56.79;101807.06;5101234;27;20040;-70
2023/04/20 04:13:46;;;;;;;6.97;3.58;;;;;;;6.89;57.12;101796.59;5121273;27;20046;-70
2023/04/20 04:16:33;;;;;;;6.28;3.22;;;;;;;6.91;57.22;101799.19;5138006;27;21017;-71
2023/04/20 04:19:20;;;;;;;7.35;2.92;;;;;;;6.96;57.26;101789.59;5136092;27;20039;-72
2023/04/20 04:22:07;;;;;;;6.10;3.50;;;;;;;6.97;57.35;101786.97;5122760;27;20039;-71
2023/04/20 04:25:00;;;;;;;5.22;3.00;;;;;;;7.00;57.34;101783.47;5121635;27;20043;-72
2023/04/20 04:27:48;;;;;;;5.70;3.08;;;;;;;7.05;57.01;101788.69;5124979;27;20044;-72
2023/04/20 04:30:37;;;;;;;5.63;3.35;;;;;;;7.06;57.34;101778.22;5140026;27;20140;-72
2023/04/20 04:33:26;;;;;;;6.68;3.03;;;;;;;7.06;57.44;101769.47;5130997;27;20475;-71
2023/04/20 04:36:14;;;;;;;5.97;3.45;;;;;;;7.06;57.57;101773.00;5141296;27;20046;-73
2023/04/20 04:39:01;;;;;;;6.05;3.33;;;;;;;7.08;57.64;101767.72;5134062;27;20070;-71
2023/04/20 04:41:48;;;;;;;6.32;3.30;;;;;;;7.09;58.06;101777.34;5123540;27;20058;-70
2023/04/20 04:44:43;;;;;;;4.45;3.20;;;;;;;7.11;58.42;101773.84;5107605;27;20048;-69
2023/04/20 04:47:35;;;;;;;5.38;3.58;;;;;;;7.17;59.00;101772.09;5135661;27;20110;-69
2023/04/20 04:50:22;;;;;;;7.35;3.35;;;;;;;7.21;58.30;101768.59;5148966;27;20047;-69
2023/04/20 04:53:10;;;;;;;6.47;3.58;;;;;;;7.22;58.03;101765.09;5157369;27;20055;-69
2023/04/20 04:55:57;;;;;;;4.38;3.22;;;;;;;7.25;58.11;101765.09;5157656;27;20035;-69
2023/04/20 04:58:46;;;;;;;7.35;3.60;;;;;;;7.25;58.06;101762.47;5130943;27;20035;-70
2023/04/20 05:01:34;;;;;;;5.88;3.55;;;;;;;7.20;58.60;101772.09;5132009;27;20090;-69
2023/04/20 05:04:21;;;;;;;5.03;3.20;;;;;;;7.23;58.62;101772.09;5143877;27;20726;-70
2023/04/20 05:07:09;;;;;;;10.32;3.72;;;;;;;7.26;58.70;101767.69;5152792;27;20040;-70
2023/04/20 05:09:56;;;;;;;9.65;3.53;;;;;;;7.36;58.66;101771.19;5148566;27;20039;-70
2023/04/20 05:12:43;;;;;;;6.88;3.30;;;;;;;7.38;58.88;101769.41;5149267;27;20619;-70
2023/04/20 05:15:30;;;;;;;7.35;3.42;;;;;;;7.41;58.94;101766.81;5153952;27;20497;-70
2023/04/20 05:18:16;;;;;;;7.00;4.05;;;;;;;7.40;59.08;101765.06;5141995;27;20823;-71
2023/04/20 05:20:43;;;;;;;4.65;3.65;;;;;;;7.39;59.02;101762.44;5144822;27;20038;-69
2023/04/20 05:23:11;;;;;;;4.50;3.60;;;;;;;7.42;59.15;101773.78;5150410;27;20076;-69
2023/04/20 05:25:38;;;;;;;10.02;3.50;;;;;;;7.49;59.14;101758.91;5146074;27;20041;-69
2023/04/20 05:28:07;;;;;;;5.78;3.45;;;;;;;7.52;58.87;101763.28;5149048;27;20444;-70
2023/04/20 05:30:36;;;;;;;4.40;3.33;;;;;;;7.53;58.99;101758.00;5149066;27;20246;-70
2023/04/20 05:33:12;;;;;;;5.28;3.40;;;;;;;7.58;58.95;101755.41;5126986;27;20055;-70
2023/04/20 05:35:39;;;;;;;6.88;3.85;;;;;;;7.64;58.75;101752.75;5141036;27;20044;-70
2023/04/20 05:38:06;;;;;;;6.20;3.03;;;;;;;7.78;58.27;101757.94;5143009;27;20046;-69
2023/04/20 05:40:34;;;;;;;6.32;3.47;;;;;;;7.78;58.34;101752.69;5140672;27;20039;-72
2023/04/20 05:43:01;;;;;;;5.95;3.30;;;;;;;7.93;58.13;101757.88;5144521;27;20092;-70
2023/04/20 05:45:28;;;;;;;5.47;3.30;;;;;;;8.15;57.55;101752.50;5146776;27;20043;-70
2023/04/20 05:47:56;;;;;;;6.45;3.15;;;;;;;8.29;57.16;101751.56;5123335;27;20564;-70
2023/04/20 05:50:25;;;;;;;4.18;3.15;;;;;;;8.28;57.16;101761.22;5114673;27;20065;-70
2023/04/20 05:52:53;;;;;;;4.95;3.50;;;;;;;8.22;57.53;101763.84;5149080;27;20036;-70
2023/04/20 05:55:20;;;;;;;7.13;3.25;;;;;;;8.15;57.60;101765.63;5148405;27;20036;-70
2023/04/20 05:57:50;;;;;;;6.88;3.38;;;;;;;8.09;57.76;101758.66;5141736;27;20035;-70
2023/04/20 06:00:19;;;;;;;6.32;2.92;;;;;;;8.16;57.63;101759.50;5149976;27;20124;-70
2023/04/20 06:02:47;;;;;;;4.93;3.30;;;;;;;8.12;57.98;101770.03;5150738;27;20051;-70
2023/04/20 06:05:15;;;;;;;7.22;3.70;;;;;;;8.06;58.36;101763.06;5128192;27;20035;-70
2023/04/20 06:07:42;;;;;;;8.65;3.45;;;;;;;7.97;58.71;101764.00;5122080;27;20039;-70
2023/04/20 06:10:09;;;;;;;10.88;3.22;;;;;;;8.00;58.71;101763.97;5148754;27;20047;-70
2023/04/20 06:12:37;;;;;;;7.32;3.90;;;;;;;7.93;58.95;101768.41;5139662;27;20146;-70
2023/04/20 06:15:09;;;;;;;5.65;3.35;;;;;;;7.86;59.26;101769.28;5139233;27;20044;-70
2023/04/20 06:17:39;;;;;;;7.43;3.75;;;;;;;7.89;59.48;101764.03;5118845;27;20027;-69
2023/04/20 06:20:09;;;;;;;6.75;3.40;;;;;;;7.97;59.07;101760.47;5124566;27;20118;-70
2023/04/20 06:22:45;;;;;;;5.07;3.50;;;;;;;7.95;59.23;101759.59;5132740;27;20058;-69
2023/04/20 06:25:14;;;;;;;5.57;3.58;;;;;;;7.96;59.24;101753.47;5129328;27;20118;-69
2023/04/20 06:27:41;;;;;;;5.88;3.42;;;;;;;7.92;59.37;101750.88;5143554;27;20061;-69
2023/04/20 06:30:10;;;;;;;5.85;3.50;;;;;;;7.91;59.66;101759.66;5149391;27;20487;-69
2023/04/20 06:32:37;;;;;;;4.97;3.28;;;;;;;7.99;59.42;101767.47;5147950;27;20031;-69
2023/04/20 06:35:06;;;;;;;8.07;4.00;;;;;;;7.91;59.74;101753.50;5124325;27;20518;-68
2023/04/20 06:37:35;;;;;;;5.30;3.33;;;;;;;7.89;59.71;101761.41;5133158;27;20075;-68
2023/04/20 06:40:09;;;;;;;6.38;3.50;;;;;;;7.78;60.10;101768.44;5135456;27;20035;-69
2023/04/20 06:42:36;;;;;;;;;;;;;;;7.78;60.52;101764.06;5113338;27;20052;-69
2023/04/20 06:45:05;;;;;;;7.10;3.67;;;;;;;7.80;60.47;101758.81;5131675;27;20006;-69
2023/04/20 06:47:33;;;;;;;8.23;3.88;;;;;;;7.80;60.47;101764.06;5141215;27;20044;-68
2023/04/20 06:50:08;;;;;;;5.85;3.33;;;;;;;7.85;60.39;101756.16;5136968;27;20595;-69
2023/04/20 06:52:37;;;;;;;5.28;3.38;;;;;;;7.78;60.57;101757.94;5128052;27;20093;-69
2023/04/20 06:55:05;;;;;;;5.65;3.40;;;;;;;7.78;60.65;101752.69;5122831;27;20043;-70
2023/04/20 06:57:32;;;;;;;5.25;3.25;;;;;;;7.82;60.74;101754.44;5118859;27;20074;-70
2023/04/20 06:59:59;;;;;;;7.18;3.78;;;;;;;8.08;60.21;101745.53;5139255;27;20036;-69
2023/04/20 07:02:26;;;;;;;5.07;3.30;;;;;;;8.38;59.43;101744.50;5128367;27;20039;-69
2023/04/20 07:05:00;;;;;;;4.40;2.70;;;;;;;8.66;58.46;101741.69;5092378;27;20109;-70
2023/04/20 07:07:27;;;;;;;4.30;2.47;;;;;;;8.66;58.10;101748.69;5128970;27;20044;-69
2023/04/20 07:09:54;;;;;;;5.47;3.03;;;;;;;8.59;58.28;101731.22;5128556;27;20513;-69
2023/04/20 07:12:21;;;;;;;5.93;3.45;;;;;;;8.49;58.64;101735.69;5139647;27;20043;-69
2023/04/20 07:14:48;;;;;;;6.03;3.08;;;;;;;8.50;58.70;101748.81;5110812;27;20031;-69
2023/04/20 07:17:15;;;;;;;7.10;2.92;;;;;;;8.64;58.39;101738.19;5110005;27;20043;-69
2023/04/20 07:19:42;;;;;;;6.18;3.20;;;;;;;8.65;58.63;101734.69;5110479;27;20048;-69
2023/04/20 07:22:09;;;;;;;6.03;2.80;;;;;;;8.75;58.51;101732.84;5128845;27;20035;-69
2023/04/20 07:24:36;;;;;;;5.40;3.25;;;;;;;8.91;58.12;101722.22;5128427;27;20039;-69
2023/04/20 07:27:04;;;;;;;6.10;3.28;;;;;;;9.04;57.77;101736.09;5127825;27;20100;-70
2023/04/20 07:29:31;;;;;;;6.93;3.45;;;;;;;9.02;57.76;101739.63;5128494;27;20067;-70
2023/04/20 07:32:00;;;;;;;6.63;3.40;;;;;;;9.02;57.45;101728.25;5128238;27;20047;-69
2023/04/20 07:34:27;;;;;;;4.40;3.22;;;;;;;9.00;57.60;101738.75;5128788;27;20055;-69
2023/04/20 07:36:54;;;;;;;5.75;3.25;;;;;;;9.00;58.14;101746.66;5128028;27;20035;-70
2023/04/20 07:39:21;;;;;;;3.97;2.90;;;;;;;9.24;56.99;101736.78;5127325;27;20435;-70
2023/04/20 07:41:48;;;;;;;4.50;2.85;;;;;;;9.25;56.60;101740.31;5143595;27;20039;-70
2023/04/20 07:44:15;;;;;;;4.82;2.90;;;;;;;9.26;56.68;101747.31;5152693;27;20028;-70
2023/04/20 07:46:42;;;;;;;4.97;2.97;;;;;;;9.29;56.63;101736.72;5152563;27;20043;-70
2023/04/20 07:49:09;;;;;;;4.03;2.78;;;;;;;9.15;57.18;101736.88;5152461;27;20487;-70
2023/04/20 07:51:35;;;;;;;3.55;2.88;;;;;;;9.03;57.68;101735.25;5133990;27;20039;-70
2023/04/20 07:54:03;;;;;;;4.28;3.00;;;;;;;9.02;57.71;101736.13;5151954;27;20767;-70
2023/04/20 07:56:30;;;;;;;4.32;2.67;;;;;;;9.00;58.01;101741.38;5136722;27;20040;-70
2023/04/20 07:58:58;;;;;;;4.65;2.60;;;;;;;9.07;57.28;101741.34;5131801;27;20035;-69
2023/04/20 08:01:25;;;;;;;5.00;2.90;;;;;;;8.97;58.10;101744.06;5131871;27;20036;-69
2023/04/20 08:03:54;;;;;;;4.97;2.90;;;;;;;9.12;58.16;101739.53;5131615;27;20044;-69
2023/04/20 08:06:22;;;;;;;4.47;2.70;;;;;;;9.32;57.09;101732.31;5134854;27;20069;-69
2023/04/20 08:08:48;;;;;;;5.68;3.00;;;;;;;9.44;56.78;101735.69;5131301;27;20120;-69
2023/04/20 08:11:15;;;;;;;6.43;3.10;;;;;;;9.59;56.86;101748.69;5130922;27;20124;-70
2023/04/20 08:13:42;;;;;;;4.20;2.38;;;;;;;9.75;56.24;101735.31;5112273;27;20040;-70
2023/04/20 08:16:10;;;;;;;4.38;2.65;;;;;;;9.74;56.08;101731.84;5112925;27;20586;-70
2023/04/20 08:18:37;;;;;;;4.80;3.90;;;;;;;9.74;56.13;101737.09;5130952;27;20047;-70
2023/04/20 08:21:04;;;;;;;4.57;2.60;;;;;;;9.73;56.23;101721.31;5130605;27;20050;-69
2023/04/20 08:23:31;;;;;;;2.60;2.38;;;;;;;9.66;56.61;101728.44;5130660;27;20051;-70
2023/04/20 08:25:58;;;;;;;4.30;2.40;;;;;;;9.53;57.06;101732.94;5145472;27;20130;-69
2023/04/20 08:28:25;;;;;;;4.32;2.90;;;;;;;9.44;57.13;101726.06;5150828;27;20556;-70
2023/04/20 08:31:00;;;;;;;6.28;3.10;;;;;;;9.41;57.20;101727.84;5150597;27;20533;-69
2023/04/20 08:33:27;;;;;;;3.65;2.70;;;;;;;9.43;57.73;101720.78;5151035;27;20202;-69
2023/04/20 08:35:54;;;;;;;3.03;2.40;;;;;;;9.66;56.70;101722.28;5112407;27;20039;-69
2023/04/20 08:38:23;;;;;;;4.35;2.85;;;;;;;9.75;56.58;101716.91;5130780;27;20047;-69
2023/04/20 08:41:00;;;;;;;3.95;2.58;;;;;;;9.75;56.90;101722.16;5114553;27;20043;-69
2023/04/20 08:43:28;;;;;;;4.93;2.65;;;;;;;9.74;56.89;101716.03;5129531;27;20046;-70
2023/04/20 08:46:03;;;;;;;5.63;3.00;;;;;;;9.78;57.21;101719.50;5127755;27;20145;-70
2023/04/20 08:48:35;;;;;;;3.72;2.88;;;;;;;9.79;57.19;101722.09;5111073;27;20036;-70
2023/04/20 08:51:04;;;;;;;3.38;2.70;;;;;;;9.79;56.20;101716.84;5111066;27;20047;-70
2023/04/20 08:53:32;;;;;;;3.90;2.72;;;;;;;9.64;56.61;101711.78;5129082;27;20044;-70
2023/04/20 08:55:59;;;;;;;4.28;2.78;;;;;;;9.53;56.75;101716.28;5128798;27;20036;-70
2023/04/20 08:58:31;;;;;;;6.55;3.00;;;;;;;9.38;57.58;101712.94;5128484;27;20039;-70
2023/04/20 09:01:01;;;;;;;4.32;2.80;;;;;;;9.43;57.63;101724.31;5129570;27;20511;-70
2023/04/20 09:03:34;;;;;;;4.80;3.08;;;;;;;9.50;57.61;101711.94;5111068;27;20510;-70
2023/04/20 09:06:04;;;;;;;7.97;3.17;;;;;;;9.63;57.35;101716.16;5141971;27;20495;-70
2023/04/20 09:08:40;;;;;;;6.60;3.30;;;;;;;9.64;57.07;101715.25;5129915;27;20054;-69
2023/04/20 09:11:25;;;;;;;4.13;2.92;;;;;;;9.54;57.78;101713.63;5128593;27;20111;-70
2023/04/20 09:14:05;;;;;;;3.97;3.30;;;;;;;9.52;57.84;101711.91;5109286;27;20040;-70
2023/04/20 09:16:36;;;;;;;3.75;3.03;;;;;;;9.45;58.22;101712.00;5129088;27;20040;-69
2023/04/20 09:19:03;;;;;;;3.47;2.78;;;;;;;9.44;58.25;101717.25;5128239;27;20502;-70
2023/04/20 09:21:31;;;;;;;6.93;3.10;;;;;;;9.36;58.25;101714.72;5110565;27;20177;-70
2023/04/20 09:24:02;;;;;;;5.30;3.30;;;;;;;9.30;58.68;101710.41;5135349;27;20043;-70
2023/04/20 09:26:34;;;;;;;5.82;3.55;;;;;;;9.28;58.64;101700.78;5149739;27;20027;-70
2023/04/20 09:29:03;;;;;;;6.18;3.20;;;;;;;9.17;58.89;101703.53;5148875;27;20035;-70
2023/04/20 09:31:30;;;;;;;4.57;3.28;;;;;;;9.11;58.88;101698.31;5130823;27;20039;-69
2023/04/20 09:34:06;;;;;;;5.35;3.50;;;;;;;8.98;59.23;101697.59;5149377;27;20066;-70
2023/04/20 09:36:40;;;;;;;4.22;3.13;;;;;;;8.93;59.57;101700.25;5131053;27;20023;-70
2023/04/20 09:39:15;;;;;;;;;;;;;;;9.01;59.68;101700.19;5139322;27;20043;-70
2023/04/20 09:41:43;;;;;;;5.85;3.10;;;;;;;9.20;59.26;101703.50;5148985;27;19930;-70
2023/04/20 09:46:51;;;;;;;4.43;2.72;;;;;;;9.76;57.47;101703.72;5102955;28;20344;-69
2023/04/20 09:49:20;;;;;;;6.03;3.08;;;;;;;9.86;56.81;101701.81;5084549;28;20053;-69
2023/04/20 09:51:48;;;;;;;4.50;3.33;;;;;;;9.91;57.31;101689.47;5084867;28;20041;-70
2023/04/20 09:54:15;;;;;;;5.95;3.47;;;;;;;9.92;57.60;101685.91;5094657;28;20035;-69
2023/04/20 09:56:44;;;;;;;5.57;3.40;;;;;;;10.01;57.18;101694.63;5069042;28;20100;-69
2023/04/20 09:59:12;;;;;;;5.65;3.15;;;;;;;9.90;57.13;101681.56;5063559;28;20034;-69
2023/04/20 10:01:39;;;;;;;5.78;3.30;;;;;;;9.78;57.46;101693.16;5079311;28;20034;-69
2023/04/20 10:04:09;;;;;;;5.18;3.47;;;;;;;9.77;57.81;101681.75;5063208;28;20603;-69
2023/04/20 10:06:37;;;;;;;4.38;3.08;;;;;;;9.86;57.61;101682.53;5092231;28;20095;-70
2023/04/20 10:09:07;;;;;;;5.40;3.00;;;;;;;9.82;57.54;101675.56;5113466;27;20047;-69
2023/04/20 10:11:43;;;;;;;5.50;3.50;;;;;;;9.70;58.17;101680.09;5104388;28;20586;-69
2023/04/20 10:14:22;;;;;;;6.80;3.65;;;;;;;9.74;58.39;101673.00;5117356;27;20037;-69
2023/04/20 10:17:03;;;;;;;6.22;3.22;;;;;;;9.91;58.00;101665.78;5083320;27;20064;-69
2023/04/20 10:19:42;;;;;;;5.07;3.42;;;;;;;10.13;57.81;101667.22;5082050;28;20926;-69
2023/04/20 10:22:24;;;;;;;5.38;3.70;;;;;;;10.41;56.53;101659.78;5083852;28;20037;-70
2023/04/20 10:24:51;;;;;;;6.53;3.55;;;;;;;10.53;56.14;101662.19;5091684;28;20128;-69
2023/04/20 10:27:20;;;;;;;7.18;3.63;;;;;;;10.97;55.44;101648.22;5067359;28;20044;-69
2023/04/20 10:29:48;;;;;;;5.38;3.30;;;;;;;11.11;55.25;101651.47;5096991;28;20046;-70
2023/04/20 10:32:26;;;;;;;6.07;3.28;;;;;;;11.13;54.58;101649.69;5104026;28;20963;-70
2023/04/20 10:35:09;;;;;;;5.85;3.42;;;;;;;11.11;54.17;101640.03;5095368;28;20083;-69
2023/04/20 10:37:49;;;;;;;3.28;2.97;;;;;;;11.08;54.55;101654.16;5080175;28;20041;-69
2023/04/20 10:40:27;;;;;;;3.85;3.05;;;;;;;11.08;54.11;101648.91;5071919;28;20040;-69
2023/04/20 10:42:54;;;;;;;4.97;3.20;;;;;;;11.02;54.26;101636.69;5077043;28;20041;-69
2023/04/20 10:45:34;;;;;;;4.28;3.40;;;;;;;11.14;53.28;101638.22;5097799;28;20057;-70
2023/04/20 10:48:08;;;;;;;5.10;3.17;;;;;;;11.17;52.41;101637.31;5103369;28;20029;-69
2023/04/20 10:50:36;;;;;;;5.43;3.10;;;;;;;11.08;52.71;101637.47;5089743;28;20136;-70
2023/04/20 10:53:04;;;;;;;4.57;3.22;;;;;;;11.07;53.08;101631.31;5081668;28;20529;-70
2023/04/20 10:55:31;;;;;;;5.22;3.55;;;;;;;11.17;53.29;101621.47;5081271;28;20075;-70
2023/04/20 10:57:58;;;;;;;6.53;3.80;;;;;;;11.23;52.25;101623.97;5069373;28;20099;-70
2023/04/20 11:00:28;;;;;;;5.25;3.70;;;;;;;11.04;52.05;101626.09;5078136;28;20099;-69
2023/04/20 11:02:56;;;;;;;4.68;3.70;;;;;;;10.82;53.18;101623.00;5058416;28;20061;-69
2023/04/20 11:05:26;;;;;;;7.50;4.18;;;;;;;10.76;53.39;101623.13;5066966;28;20056;-69
2023/04/20 11:07:56;;;;;;;6.65;4.15;;;;;;;10.68;53.12;101618.84;5067990;28;20561;-69
2023/04/20 11:10:41;;;;;;;5.38;3.70;;;;;;;10.52;53.43;101622.66;5063928;28;20071;-70
2023/04/20 11:13:29;;;;;;;6.18;3.85;;;;;;;10.40;53.85;101626.41;5064085;28;20583;-69
2023/04/20 11:15:56;;;;;;;7.40;3.90;;;;;;;10.28;54.37;101618.66;5067332;28;20079;-69
2023/04/20 11:18:23;;;;;;;5.90;4.00;;;;;;;10.11;54.98;101606.66;5070703;28;20517;-69
2023/04/20 11:20:55;;;;;;;5.05;4.10;;;;;;;9.99;55.86;101612.97;5072563;28;20356;-70
2023/04/20 11:23:26;;;;;;;5.25;3.85;;;;;;;9.86;56.65;101616.69;5067095;28;20044;-70
2023/04/20 11:25:55;;;;;;;6.82;4.28;;;;;;;9.44;58.36;101612.00;5066806;28;20949;-69
2023/04/20 11:28:24;;;;;;;6.95;4.28;;;;;;;9.11;59.43;101622.03;5056720;28;20406;-69
2023/04/20 11:30:51;;;;;;;8.80;4.47;;;;;;;8.88;60.63;101609.16;5066919;28;20064;-69
2023/04/20 11:33:30;;;;;;;5.43;4.05;;;;;;;8.71;61.93;101615.47;5074654;28;20981;-70
2023/04/20 11:35:58;;;;;;;6.55;4.30;;;;;;;8.71;62.33;101615.47;5071410;28;20045;-69
2023/04/20 11:38:32;;;;;;;7.07;4.40;;;;;;;8.73;61.69;101613.72;5068305;28;20049;-69
2023/04/20 11:41:03;;;;;;;5.35;4.20;;;;;;;8.70;62.64;101630.34;5064028;28;20115;-69
2023/04/20 11:43:31;;;;;;;9.38;5.57;;;;;;;8.61;66.41;101648.00;5068290;28;20535;-69
2023/04/20 11:45:59;;;;;;;7.47;5.85;;;;;;;8.44;68.37;101617.47;5066749;28;20056;-69
2023/04/20 11:48:30;;;;;;;7.85;5.63;;;;;;;8.34;70.15;101616.66;5064118;28;20578;-69
2023/04/20 11:50:57;;;;;;;6.80;5.53;;;;;;;8.29;70.95;101607.91;5064392;28;20119;-69
2023/04/20 11:53:24;;;;;;;6.18;5.32;;;;;;;8.50;71.22;101600.75;5080605;28;20056;-69